createdAt,value
2023-03-02T06:03:06.912Z,95734.00
2023-03-02T06:04:07.881Z,95730.00
2023-03-02T06:05:06.914Z,95734.00
2023-03-02T06:06:07.959Z,95736.00
2023-03-02T06:07:06.960Z,95736.00
2023-03-02T06:08:08.007Z,95736.00
2023-03-02T06:09:08.007Z,95734.00
2023-03-02T06:10:08.020Z,95736.00
2023-03-02T06:11:08.121Z,95738.00
2023-03-02T06:12:07.105Z,95738.00
2023-03-02T06:13:07.159Z,95742.00
2023-03-02T06:14:08.202Z,95740.00
2023-03-02T06:15:08.261Z,95745.00
2023-03-02T06:16:08.901Z,95745.00
2023-03-02T06:17:08.301Z,95745.00
2023-03-02T06:18:08.299Z,95740.00
2023-03-02T06:19:08.350Z,95742.00
2023-03-02T06:20:08.354Z,95742.00
2023-03-02T06:21:08.358Z,95740.00
2023-03-02T06:22:08.396Z,95740.00
2023-03-02T06:23:07.419Z,95742.00
2023-03-02T06:24:08.436Z,95740.00
2023-03-02T06:25:08.461Z,95745.00
2023-03-02T06:26:08.497Z,95747.00
2023-03-02T06:27:08.536Z,95747.00
2023-03-02T06:28:08.583Z,95743.00
2023-03-02T06:29:08.619Z,95745.00
2023-03-02T06:30:08.598Z,95742.00
2023-03-02T06:31:08.612Z,95742.00
2023-03-02T06:32:08.751Z,95742.00
2023-03-02T06:33:08.684Z,95745.00
2023-03-02T06:34:08.680Z,95743.00
2023-03-02T06:35:08.975Z,95743.00
2023-03-02T06:36:09.031Z,95740.00
2023-03-02T06:37:08.738Z,95740.00
2023-03-02T06:38:08.758Z,95740.00
2023-03-02T06:39:08.780Z,95740.00
2023-03-02T06:40:07.800Z,95742.00
2023-03-02T06:41:08.815Z,95742.00
2023-03-02T06:42:07.826Z,95742.00
2023-03-02T06:43:07.856Z,95742.00
2023-03-02T06:44:08.887Z,95742.00
2023-03-02T06:45:08.908Z,95742.00
2023-03-02T06:46:09.080Z,95742.00
2023-03-02T06:47:08.929Z,95742.00
2023-03-02T06:48:08.948Z,95747.00
2023-03-02T06:49:08.985Z,95743.00
2023-03-02T06:50:08.982Z,95742.00
2023-03-02T06:51:08.113Z,95740.00
2023-03-02T06:52:08.040Z,95740.00
2023-03-02T06:53:08.062Z,95745.00
2023-03-02T06:54:08.092Z,95742.00
2023-03-02T06:55:09.108Z,95745.00
2023-03-02T06:56:09.577Z,95745.00
2023-03-02T06:57:08.129Z,95742.00
2023-03-02T06:58:09.175Z,95743.00
2023-03-02T06:59:09.190Z,95743.00
2023-03-02T07:00:09.184Z,95743.00
2023-03-02T07:01:09.705Z,95743.00
2023-03-02T07:02:09.228Z,95745.00
2023-03-02T07:03:09.255Z,95749.00
2023-03-02T07:04:09.298Z,95751.00
2023-03-02T07:05:09.273Z,95751.00
2023-03-02T07:06:09.305Z,95749.00
2023-03-02T07:07:09.334Z,95753.00
2023-03-02T07:09:09.347Z,95753.00
2023-03-02T07:10:09.429Z,95751.00
2023-03-02T07:11:09.388Z,95755.00
2023-03-02T07:12:09.381Z,95757.00
2023-03-02T07:13:09.355Z,95757.00
2023-03-02T07:14:08.423Z,95757.00
2023-03-02T07:15:09.450Z,95751.00
2023-03-02T07:16:09.783Z,95757.00
2023-03-02T07:17:09.464Z,95757.00
2023-03-02T07:18:09.474Z,95755.00
2023-03-02T07:19:09.485Z,95759.00
2023-03-02T07:20:09.500Z,95763.00
2023-03-02T07:22:09.528Z,95763.00
2023-03-02T07:26:09.579Z,95767.00
2023-03-02T07:27:08.565Z,95771.00
2023-03-02T07:28:09.573Z,95771.00
2023-03-02T07:29:09.594Z,95771.00
2023-03-02T07:30:09.594Z,95771.00
2023-03-02T07:31:09.689Z,95769.00
2023-03-02T07:32:12.133Z,95771.00
2023-03-02T07:33:09.586Z,95773.00
2023-03-02T07:34:09.616Z,95773.00
2023-03-02T07:35:09.574Z,95775.00
2023-03-02T07:36:08.573Z,95777.00
2023-03-02T07:38:09.567Z,95775.00
2023-03-02T07:39:09.617Z,95771.00
2023-03-02T07:40:08.558Z,95775.00
2023-03-02T07:41:09.565Z,95771.00
2023-03-02T07:42:09.543Z,95769.00
2023-03-02T07:43:09.528Z,95775.00
2023-03-02T07:44:09.516Z,95775.00
2023-03-02T07:45:09.564Z,95775.00
2023-03-02T07:46:09.573Z,95773.00
2023-03-02T07:47:09.492Z,95769.00
2023-03-02T07:48:09.483Z,95765.00
2023-03-02T07:49:08.474Z,95767.00
2023-03-02T07:50:09.528Z,95767.00
2023-03-02T07:51:09.535Z,95771.00
2023-03-02T07:52:09.584Z,95773.00
2023-03-02T07:53:09.450Z,95777.00
2023-03-02T07:54:09.447Z,95779.00
2023-03-02T07:55:09.643Z,95775.00
2023-03-02T07:56:09.458Z,95775.00
2023-03-02T07:57:09.589Z,95773.00
2023-03-02T07:58:09.407Z,95773.00
2023-03-02T07:59:09.406Z,95771.00
2023-03-02T08:00:09.387Z,95775.00
2023-03-02T08:01:09.400Z,95773.00
2023-03-02T08:02:09.438Z,95775.00
2023-03-02T08:03:09.428Z,95775.00
2023-03-02T08:04:09.364Z,95777.00
2023-03-02T08:06:08.387Z,95779.00
2023-03-02T08:07:08.368Z,95781.00
2023-03-02T08:08:09.343Z,95781.00
2023-03-02T08:09:09.337Z,95779.00
2023-03-02T08:10:08.314Z,95781.00
2023-03-02T08:11:09.351Z,95779.00
2023-03-02T08:12:08.316Z,95781.00
2023-03-02T08:13:09.311Z,95781.00
2023-03-02T08:14:08.293Z,95779.00
2023-03-02T08:15:09.297Z,95779.00
2023-03-02T08:16:08.381Z,95775.00
2023-03-02T08:17:09.279Z,95775.00
2023-03-02T08:18:09.270Z,95773.00
2023-03-02T08:19:09.255Z,95773.00
2023-03-02T08:20:08.260Z,95775.00
2023-03-02T08:21:09.233Z,95773.00
2023-03-02T08:22:08.237Z,95771.00
2023-03-02T08:23:09.236Z,95769.00
2023-03-02T08:24:09.278Z,95765.00
2023-03-02T08:25:09.201Z,95767.00
2023-03-02T08:26:11.657Z,95767.00
2023-03-02T08:27:09.253Z,95763.00
2023-03-02T08:28:09.194Z,95763.00
2023-03-02T08:29:09.180Z,95763.00
2023-03-02T08:30:08.165Z,95759.00
2023-03-02T08:31:09.197Z,95757.00
2023-03-02T08:32:09.343Z,95759.00
2023-03-02T08:33:08.144Z,95759.00
2023-03-02T08:34:09.144Z,95759.00
2023-03-02T08:35:08.122Z,95759.00
2023-03-02T08:36:09.195Z,95763.00
2023-03-02T08:37:09.116Z,95761.00
2023-03-02T08:38:08.113Z,95759.00
2023-03-02T08:39:09.118Z,95761.00
2023-03-02T08:40:08.101Z,95757.00
2023-03-02T08:41:09.084Z,95755.00
2023-03-02T08:42:08.087Z,95759.00
2023-03-02T08:43:09.106Z,95755.00
2023-03-02T08:44:09.093Z,95755.00
2023-03-02T08:45:08.060Z,95753.00
2023-03-02T08:46:09.095Z,95751.00
2023-03-02T08:47:08.131Z,95751.00
2023-03-02T08:48:09.030Z,95753.00
2023-03-02T08:49:09.027Z,95749.00
2023-03-02T08:50:09.042Z,95751.00
2023-03-02T08:51:09.031Z,95747.00
2023-03-02T08:52:09.112Z,95751.00
2023-03-02T08:53:08.996Z,95751.00
2023-03-02T08:54:08.977Z,95751.00
2023-03-02T08:55:08.060Z,95751.00
2023-03-02T08:56:08.961Z,95751.00
2023-03-02T08:57:08.973Z,95749.00
2023-03-02T08:58:08.950Z,95751.00
2023-03-02T08:59:08.974Z,95747.00
2023-03-02T09:00:08.936Z,95743.00
2023-03-02T09:01:08.969Z,95743.00
2023-03-02T09:02:07.946Z,95742.00
2023-03-02T09:03:08.917Z,95743.00
2023-03-02T09:04:08.972Z,95743.00
2023-03-02T09:05:08.896Z,95745.00
2023-03-02T09:06:08.888Z,95743.00
2023-03-02T09:07:08.899Z,95743.00
2023-03-02T09:08:08.864Z,95743.00
2023-03-02T09:09:08.930Z,95745.00
2023-03-02T09:10:08.956Z,95742.00
2023-03-02T09:11:08.995Z,95742.00
2023-03-02T09:12:09.058Z,95742.00
2023-03-02T09:13:09.108Z,95740.00
2023-03-02T09:14:09.149Z,95742.00
2023-03-02T09:15:09.188Z,95740.00
2023-03-02T09:16:09.246Z,95738.00
2023-03-02T09:17:08.188Z,95740.00
2023-03-02T09:18:08.227Z,95740.00
2023-03-02T09:19:09.269Z,95738.00
2023-03-02T09:20:08.259Z,95740.00
2023-03-02T09:21:09.300Z,95736.00
2023-03-02T09:22:09.335Z,95734.00
2023-03-02T09:23:09.383Z,95734.00
2023-03-02T09:24:09.422Z,95736.00
2023-03-02T09:25:09.467Z,95730.00
2023-03-02T09:26:09.527Z,95730.00
2023-03-02T09:27:09.608Z,95732.00
2023-03-02T09:28:08.608Z,95734.00
2023-03-02T09:29:09.681Z,95736.00
2023-03-02T09:30:09.736Z,95736.00
2023-03-02T09:31:09.810Z,95738.00
2023-03-02T09:32:09.907Z,95738.00
2023-03-02T09:33:09.900Z,95736.00
2023-03-02T09:34:08.938Z,95738.00
2023-03-02T09:35:08.904Z,95736.00
2023-03-02T09:36:09.903Z,95732.00
2023-03-02T09:37:08.924Z,95734.00
2023-03-02T09:38:09.960Z,95732.00
2023-03-02T09:39:08.942Z,95732.00
2023-03-02T09:40:09.976Z,95736.00
2023-03-02T09:41:09.998Z,95738.00
2023-03-02T09:42:10.130Z,95736.00
2023-03-02T09:43:10.071Z,95734.00
2023-03-02T09:44:10.126Z,95734.00
2023-03-02T09:45:10.171Z,95736.00
2023-03-02T09:46:10.365Z,95734.00
2023-03-02T09:47:10.294Z,95734.00
2023-03-02T09:48:10.256Z,95738.00
2023-03-02T09:49:10.269Z,95738.00
2023-03-02T09:50:09.296Z,95734.00
2023-03-02T09:51:10.295Z,95734.00
2023-03-02T09:52:10.315Z,95728.00
2023-03-02T09:53:10.289Z,95730.00
2023-03-02T09:54:10.360Z,95730.00
2023-03-02T09:55:09.300Z,95728.00
2023-03-02T09:56:09.307Z,95728.00
2023-03-02T09:57:10.665Z,95728.00
2023-03-02T09:58:10.384Z,95728.00
2023-03-02T09:59:10.438Z,95728.00
2023-03-02T10:00:19.253Z,95726.00
2023-03-02T10:01:10.501Z,95724.00
2023-03-02T10:02:10.485Z,95726.00
2023-03-02T10:03:17.158Z,95722.00
2023-03-02T10:04:10.602Z,95718.00
2023-03-02T10:05:10.464Z,95716.00
2023-03-02T10:06:10.445Z,95714.00
2023-03-02T10:07:10.475Z,95710.00
2023-03-02T10:08:10.450Z,95714.00
2023-03-02T10:09:10.432Z,95708.00
2023-03-02T10:10:10.447Z,95708.00
2023-03-02T10:11:09.416Z,95706.00
2023-03-02T10:12:10.439Z,95704.00
2023-03-02T10:13:10.425Z,95702.00
2023-03-02T10:14:10.387Z,95704.00
2023-03-02T10:15:10.413Z,95702.00
2023-03-02T10:16:10.419Z,95698.00
2023-03-02T10:17:10.359Z,95698.00
2023-03-02T10:18:10.379Z,95695.00
2023-03-02T10:19:10.391Z,95695.00
2023-03-02T10:20:10.345Z,95693.00
2023-03-02T10:21:10.370Z,95693.00
2023-03-02T10:22:09.368Z,95695.00
2023-03-02T10:23:10.377Z,95693.00
2023-03-02T10:24:09.317Z,95695.00
2023-03-02T10:25:10.331Z,95689.00
2023-03-02T10:26:10.302Z,95689.00
2023-03-02T10:27:10.348Z,95687.00
2023-03-02T10:28:10.289Z,95687.00
2023-03-02T10:29:09.262Z,95685.00
2023-03-02T10:30:10.271Z,95687.00
2023-03-02T10:31:10.392Z,95691.00
2023-03-02T10:32:09.380Z,95691.00
2023-03-02T10:33:09.368Z,95689.00
2023-03-02T10:34:10.433Z,95691.00
2023-03-02T10:35:09.505Z,95689.00
2023-03-02T10:36:10.481Z,95687.00
2023-03-02T10:37:10.511Z,95685.00
2023-03-02T10:38:10.544Z,95685.00
2023-03-02T10:39:10.606Z,95683.00
2023-03-02T10:40:10.637Z,95681.00
2023-03-02T10:41:10.676Z,95681.00
2023-03-02T10:42:10.817Z,95677.00
2023-03-02T10:43:10.800Z,95677.00
2023-03-02T10:44:10.853Z,95677.00
2023-03-02T10:45:09.910Z,95675.00
2023-03-02T10:46:11.028Z,95675.00
2023-03-02T10:47:11.000Z,95675.00
2023-03-02T10:48:11.027Z,95665.00
2023-03-02T10:49:11.060Z,95661.00
2023-03-02T10:50:11.201Z,95661.00
2023-03-02T10:51:11.091Z,95661.00
2023-03-02T10:52:11.159Z,95659.00
2023-03-02T10:53:11.645Z,95659.00
2023-03-02T10:54:11.271Z,95659.00
2023-03-02T10:55:11.316Z,95659.00
2023-03-02T10:56:11.371Z,95659.00
2023-03-02T10:57:11.425Z,95657.00
2023-03-02T10:58:11.475Z,95657.00
2023-03-02T10:59:11.517Z,95655.00
2023-03-02T11:00:11.578Z,95655.00
2023-03-02T11:01:11.636Z,95655.00
2023-03-02T11:02:11.685Z,95653.00
2023-03-02T11:03:11.748Z,95655.00
2023-03-02T11:04:11.827Z,95653.00
2023-03-02T11:05:11.798Z,95649.00
2023-03-02T11:06:11.970Z,95653.00
2023-03-02T11:07:10.885Z,95651.00
2023-03-02T11:08:11.921Z,95653.00
2023-03-02T11:09:11.979Z,95651.00
2023-03-02T11:10:12.030Z,95649.00
2023-03-02T11:11:12.057Z,95651.00
2023-03-02T11:12:12.184Z,95651.00
2023-03-02T11:13:12.150Z,95651.00
2023-03-02T11:14:12.219Z,95649.00
2023-03-02T11:15:12.256Z,95649.00
2023-03-02T11:16:11.334Z,95651.00
2023-03-02T11:17:12.355Z,95649.00
2023-03-02T11:18:12.410Z,95649.00
2023-03-02T11:19:11.452Z,95649.00
2023-03-02T11:20:12.504Z,95647.00
2023-03-02T11:21:11.538Z,95643.00
2023-03-02T11:22:12.615Z,95643.00
2023-03-02T11:23:12.655Z,95645.00
2023-03-02T11:24:12.710Z,95645.00
2023-03-02T11:25:12.764Z,95645.00
2023-03-02T11:26:12.803Z,95645.00
2023-03-02T11:27:12.831Z,95645.00
2023-03-02T11:28:12.889Z,95643.00
2023-03-02T11:29:12.960Z,95643.00
2023-03-02T11:30:12.017Z,95643.00
2023-03-02T11:31:12.137Z,95640.00
2023-03-02T11:32:12.167Z,95638.00
2023-03-02T11:33:13.260Z,95640.00
2023-03-02T11:34:18.049Z,95636.00
2023-03-02T11:35:13.219Z,95636.00
2023-03-02T11:36:13.208Z,95636.00
2023-03-02T11:37:13.189Z,95638.00
2023-03-02T11:38:13.209Z,95638.00
2023-03-02T11:39:13.184Z,95636.00
2023-03-02T11:40:13.163Z,95638.00
2023-03-02T11:41:13.159Z,95638.00
2023-03-02T11:42:13.202Z,95634.00
2023-03-02T11:43:13.182Z,95638.00
2023-03-02T11:44:13.162Z,95640.00
2023-03-02T11:45:13.130Z,95636.00
2023-03-02T11:46:21.459Z,95636.00
2023-03-02T11:47:13.160Z,95636.00
2023-03-02T11:48:13.172Z,95636.00
2023-03-02T11:49:12.105Z,95632.00
2023-03-02T11:50:12.083Z,95630.00
2023-03-02T11:51:13.110Z,95628.00
2023-03-02T11:52:12.063Z,95630.00
2023-03-02T11:53:12.277Z,95628.00
2023-03-02T11:54:12.096Z,95626.00
2023-03-02T11:55:13.051Z,95626.00
2023-03-02T11:56:13.081Z,95624.00
2023-03-02T11:57:13.077Z,95624.00
2023-03-02T11:58:13.021Z,95624.00
2023-03-02T11:59:13.009Z,95624.00
2023-03-02T12:00:13.005Z,95624.00
2023-03-02T12:01:12.004Z,95624.00
2023-03-02T12:02:13.111Z,95622.00
2023-03-02T12:03:12.998Z,95622.00
2023-03-02T12:04:12.983Z,95624.00
2023-03-02T12:05:12.022Z,95624.00
2023-03-02T12:06:12.960Z,95620.00
2023-03-02T12:07:12.955Z,95618.00
2023-03-02T12:08:12.949Z,95618.00
2023-03-02T12:09:13.070Z,95612.00
2023-03-02T12:10:11.989Z,95614.00
2023-03-02T12:11:12.953Z,95612.00
2023-03-02T12:12:12.926Z,95610.00
2023-03-02T12:13:12.935Z,95610.00
2023-03-02T12:14:12.910Z,95608.00
2023-03-02T12:15:12.917Z,95604.00
2023-03-02T12:16:12.983Z,95602.00
2023-03-02T12:17:12.902Z,95602.00
2023-03-02T12:18:12.900Z,95598.00
2023-03-02T12:19:12.872Z,95600.00
2023-03-02T12:20:11.881Z,95596.00
2023-03-02T12:21:12.875Z,95596.00
2023-03-02T12:22:12.855Z,95598.00
2023-03-02T12:23:12.908Z,95595.00
2023-03-02T12:24:12.846Z,95595.00
2023-03-02T12:25:12.836Z,95591.00
2023-03-02T12:26:12.856Z,95591.00
2023-03-02T12:27:11.816Z,95589.00
2023-03-02T12:28:12.908Z,95587.00
2023-03-02T12:29:11.795Z,95589.00
2023-03-02T12:30:12.853Z,95589.00
2023-03-02T12:31:12.893Z,95587.00
2023-03-02T12:32:12.897Z,95585.00
2023-03-02T12:33:12.783Z,95583.00
2023-03-02T12:34:12.837Z,95581.00
2023-03-02T12:35:12.785Z,95579.00
2023-03-02T12:36:12.749Z,95577.00
2023-03-02T12:37:11.736Z,95577.00
2023-03-02T12:38:13.303Z,95571.00
2023-03-02T12:39:11.721Z,95573.00
2023-03-02T12:40:12.716Z,95573.00
2023-03-02T12:41:12.756Z,95569.00
2023-03-02T12:42:12.767Z,95567.00
2023-03-02T12:43:11.891Z,95565.00
2023-03-02T12:44:12.765Z,95565.00
2023-03-02T12:45:12.733Z,95563.00
2023-03-02T12:46:11.727Z,95561.00
2023-03-02T12:47:11.842Z,95561.00
2023-03-02T12:48:11.725Z,95561.00
2023-03-02T12:49:13.329Z,95559.00
2023-03-02T12:50:11.677Z,95561.00
2023-03-02T12:51:12.705Z,95559.00
2023-03-02T12:52:12.791Z,95559.00
2023-03-02T12:53:12.651Z,95555.00
2023-03-02T12:54:12.643Z,95555.00
2023-03-02T12:55:11.643Z,95555.00
2023-03-02T12:56:11.669Z,95553.00
2023-03-02T12:57:12.628Z,95555.00
2023-03-02T12:58:12.639Z,95553.00
2023-03-02T12:59:11.615Z,95553.00
2023-03-02T13:00:12.604Z,95551.00
2023-03-02T13:01:12.661Z,95551.00
2023-03-02T13:02:12.642Z,95551.00
2023-03-02T13:03:12.654Z,95551.00
2023-03-02T13:04:12.670Z,95549.00
2023-03-02T13:05:12.581Z,95549.00
2023-03-02T13:06:12.591Z,95549.00
2023-03-02T13:07:12.576Z,95551.00
2023-03-02T13:08:12.581Z,95546.00
2023-03-02T13:09:12.590Z,95548.00
2023-03-02T13:10:12.621Z,95544.00
2023-03-02T13:11:11.604Z,95546.00
2023-03-02T13:12:12.592Z,95542.00
2023-03-02T13:13:12.643Z,95540.00
2023-03-02T13:14:11.613Z,95540.00
2023-03-02T13:15:12.584Z,95540.00
2023-03-02T13:16:12.590Z,95540.00
2023-03-02T13:17:12.573Z,95542.00
2023-03-02T13:18:12.251Z,95542.00
2023-03-02T13:19:12.585Z,95542.00
2023-03-02T13:20:12.584Z,95542.00
2023-03-02T13:21:12.558Z,95542.00
2023-03-02T13:22:12.601Z,95544.00
2023-03-02T13:23:11.577Z,95544.00
2023-03-02T13:24:12.435Z,95546.00
2023-03-02T13:25:12.556Z,95546.00
2023-03-02T13:26:12.555Z,95546.00
2023-03-02T13:27:11.565Z,95544.00
2023-03-02T13:28:12.553Z,95544.00
2023-03-02T13:29:12.546Z,95542.00
2023-03-02T13:30:12.592Z,95540.00
2023-03-02T13:31:12.652Z,95540.00
2023-03-02T13:32:12.579Z,95540.00
2023-03-02T13:33:12.547Z,95540.00
2023-03-02T13:34:12.549Z,95538.00
2023-03-02T13:35:12.530Z,95542.00
2023-03-02T13:36:12.537Z,95534.00
2023-03-02T13:37:12.525Z,95536.00
2023-03-02T13:38:11.544Z,95534.00
2023-03-02T13:39:12.545Z,95536.00
2023-03-02T13:40:12.532Z,95532.00
2023-03-02T13:41:11.536Z,95532.00
2023-03-02T13:42:12.531Z,95530.00
2023-03-02T13:43:12.537Z,95528.00
2023-03-02T13:44:12.595Z,95528.00
2023-03-02T13:45:12.796Z,95528.00
2023-03-02T13:46:11.661Z,95526.00
2023-03-02T13:47:11.555Z,95526.00
2023-03-02T13:48:12.545Z,95524.00
2023-03-02T13:49:12.537Z,95526.00
2023-03-02T13:50:12.610Z,95528.00
2023-03-02T13:51:11.537Z,95524.00
2023-03-02T13:52:12.534Z,95526.00
2023-03-02T13:53:12.537Z,95526.00
2023-03-02T13:54:12.530Z,95522.00
2023-03-02T13:55:12.519Z,95526.00
2023-03-02T13:56:12.511Z,95524.00
2023-03-02T13:57:12.523Z,95528.00
2023-03-02T13:58:11.523Z,95524.00
2023-03-02T13:59:12.531Z,95526.00
2023-03-02T14:00:12.531Z,95526.00
2023-03-02T14:01:12.537Z,95526.00
2023-03-02T14:02:12.531Z,95524.00
2023-03-02T14:03:12.498Z,95524.00
2023-03-02T14:04:12.641Z,95524.00
2023-03-02T14:05:12.640Z,95524.00
2023-03-02T14:06:12.513Z,95524.00
2023-03-02T14:07:12.508Z,95524.00
2023-03-02T14:08:12.501Z,95526.00
2023-03-02T14:09:12.501Z,95524.00
2023-03-02T14:10:12.502Z,95526.00
2023-03-02T14:11:11.530Z,95526.00
2023-03-02T14:12:12.519Z,95524.00
2023-03-02T14:13:12.508Z,95524.00
2023-03-02T14:14:12.522Z,95524.00
2023-03-02T14:15:12.555Z,95528.00
2023-03-02T14:16:12.585Z,95524.00
2023-03-02T14:17:12.499Z,95524.00
2023-03-02T14:18:12.547Z,95524.00
2023-03-02T14:19:12.535Z,95528.00
2023-03-02T14:20:11.539Z,95526.00
2023-03-02T14:21:11.628Z,95520.00
2023-03-02T14:22:12.540Z,95524.00
2023-03-02T14:23:12.645Z,95522.00
2023-03-02T14:24:12.541Z,95526.00
2023-03-02T14:25:12.547Z,95526.00
2023-03-02T14:26:11.551Z,95524.00
2023-03-02T14:27:12.526Z,95528.00
2023-03-02T14:28:12.514Z,95526.00
2023-03-02T14:29:12.526Z,95528.00
2023-03-02T14:30:12.550Z,95530.00
2023-03-02T14:31:12.741Z,95526.00
2023-03-02T14:32:12.594Z,95530.00
2023-03-02T14:33:12.548Z,95528.00
2023-03-02T14:34:12.607Z,95530.00
2023-03-02T14:35:12.564Z,95528.00
2023-03-02T14:36:12.555Z,95528.00
2023-03-02T14:37:12.553Z,95526.00
2023-03-02T14:38:12.530Z,95526.00
2023-03-02T14:39:12.540Z,95526.00
2023-03-02T14:40:11.531Z,95524.00
2023-03-02T14:41:12.525Z,95520.00
2023-03-02T14:42:12.522Z,95522.00
2023-03-02T14:43:12.522Z,95520.00
2023-03-02T14:44:12.529Z,95516.00
2023-03-02T14:45:12.531Z,95522.00
2023-03-02T14:46:11.585Z,95520.00
2023-03-02T14:47:12.531Z,95518.00
2023-03-02T14:48:11.544Z,95518.00
2023-03-02T14:49:12.569Z,95518.00
2023-03-02T14:50:12.648Z,95516.00
2023-03-02T14:51:12.626Z,95520.00
2023-03-02T14:52:12.578Z,95520.00
2023-03-02T14:53:12.607Z,95522.00
2023-03-02T14:54:12.609Z,95518.00
2023-03-02T14:55:11.657Z,95520.00
2023-03-02T14:56:12.616Z,95522.00
2023-03-02T14:57:12.621Z,95524.00
2023-03-02T14:58:12.603Z,95522.00
2023-03-02T14:59:11.618Z,95520.00
2023-03-02T15:00:12.691Z,95522.00
2023-03-02T15:01:11.662Z,95524.00
2023-03-02T15:02:24.449Z,95522.00
2023-03-02T15:03:12.743Z,95524.00
2023-03-02T15:04:12.666Z,95524.00
2023-03-02T15:05:12.645Z,95522.00
2023-03-02T15:06:12.656Z,95522.00
2023-03-02T15:07:12.631Z,95522.00
2023-03-02T15:08:12.614Z,95522.00
2023-03-02T15:09:12.622Z,95522.00
2023-03-02T15:10:12.605Z,95524.00
2023-03-02T15:11:12.601Z,95524.00
2023-03-02T15:12:12.602Z,95526.00
2023-03-02T15:13:12.583Z,95526.00
2023-03-02T15:14:12.594Z,95522.00
2023-03-02T15:15:12.623Z,95526.00
2023-03-02T15:16:12.648Z,95528.00
2023-03-02T15:17:12.547Z,95528.00
2023-03-02T15:18:11.541Z,95526.00
2023-03-02T15:19:12.557Z,95526.00
2023-03-02T15:20:11.585Z,95524.00
2023-03-02T15:21:12.524Z,95530.00
2023-03-02T15:22:12.557Z,95528.00
2023-03-02T15:23:12.509Z,95532.00
2023-03-02T15:24:12.517Z,95528.00
2023-03-02T15:25:12.497Z,95528.00
2023-03-02T15:26:11.508Z,95528.00
2023-03-02T15:27:12.519Z,95524.00
2023-03-02T15:28:12.477Z,95532.00
2023-03-02T15:29:11.479Z,95532.00
2023-03-02T15:30:12.503Z,95532.00
2023-03-02T15:31:12.485Z,95532.00
2023-03-02T15:32:12.553Z,95534.00
2023-03-02T15:33:12.442Z,95534.00
2023-03-02T15:34:11.439Z,95534.00
2023-03-02T15:35:12.541Z,95534.00
2023-03-02T15:36:12.494Z,95536.00
2023-03-02T15:37:12.411Z,95536.00
2023-03-02T15:38:12.425Z,95536.00
2023-03-02T15:39:11.393Z,95538.00
2023-03-02T15:40:12.386Z,95540.00
2023-03-02T15:41:11.393Z,95538.00
2023-03-02T15:42:13.917Z,95534.00
2023-03-02T15:43:12.535Z,95536.00
2023-03-02T15:44:12.547Z,95542.00
2023-03-02T15:45:12.559Z,95544.00
2023-03-02T15:46:11.559Z,95540.00
2023-03-02T15:47:12.598Z,95544.00
2023-03-02T15:48:13.575Z,95542.00
2023-03-02T15:49:12.598Z,95546.00
2023-03-02T15:50:11.584Z,95546.00
2023-03-02T15:51:12.608Z,95546.00
2023-03-02T15:52:12.610Z,95546.00
2023-03-02T15:53:12.632Z,95549.00
2023-03-02T15:54:11.680Z,95551.00
2023-03-02T15:55:12.671Z,95548.00
2023-03-02T15:56:12.693Z,95551.00
2023-03-02T15:57:12.707Z,95553.00
2023-03-02T15:58:12.720Z,95551.00
2023-03-02T15:59:12.738Z,95549.00
2023-03-02T16:00:12.765Z,95551.00
2023-03-02T16:01:12.823Z,95553.00
2023-03-02T16:02:12.820Z,95555.00
2023-03-02T16:03:12.893Z,95551.00
2023-03-02T16:04:12.857Z,95551.00
2023-03-02T16:05:11.885Z,95553.00
2023-03-02T16:06:12.931Z,95553.00
2023-03-02T16:07:11.949Z,95551.00
2023-03-02T16:08:12.985Z,95553.00
2023-03-02T16:09:12.051Z,95557.00
2023-03-02T16:10:12.074Z,95555.00
2023-03-02T16:11:12.141Z,95559.00
2023-03-02T16:12:12.118Z,95553.00
2023-03-02T16:13:13.181Z,95557.00
2023-03-02T16:14:13.196Z,95557.00
2023-03-02T16:15:13.241Z,95559.00
2023-03-02T16:16:13.330Z,95559.00
2023-03-02T16:17:13.303Z,95563.00
2023-03-02T16:18:13.346Z,95559.00
2023-03-02T16:19:13.392Z,95561.00
2023-03-02T16:20:13.431Z,95563.00
2023-03-02T16:21:14.275Z,95557.00
2023-03-02T16:22:13.513Z,95555.00
2023-03-02T16:23:12.576Z,95555.00
2023-03-02T16:28:12.847Z,95563.00
